McCune, Kansas
Current Conditions -  °F | °C
As of 5:15 AM on Monday 20 Oct 2014 (Local Time) from KPTS Reporting Station
Overcast Overcast  
Wind Chill: 61°   Ceiling: 8000
Heat Index: 61°   Visibility: 10mi
Dew Point: 56°   Wind: 5mph
Humidity: 85%   Direction: 230°SW
Pressure: 30.02"   Gusts: NA
Location:  37.35°N, 95.02°W
Report Text: KPTS 201015Z AUTO 23004KT 10SM OVC080 16/14 A3002 RMK AO2 LTG DSNT SW T01610135
Loading
Personal Weather Stations






























Interactive Weather Map
Tropical Storm Tracking
New forecast layout! Learn more

10-Day Weather Forecast

Advertisements
Track Severe Weather on mobile